createdAt,value
2023-02-01T00:00:54.979Z,-2.35
2023-02-01T00:03:29.219Z,-2.28
2023-02-01T00:05:58.433Z,-2.20
2023-02-01T00:08:27.052Z,-2.09
2023-02-01T00:11:02.445Z,-1.97
2023-02-01T00:13:31.605Z,-1.85
2023-02-01T00:16:07.282Z,-1.76
2023-02-01T00:18:35.490Z,-1.68
2023-02-01T00:21:03.589Z,-1.61
2023-02-01T00:23:35.593Z,-1.55
2023-02-01T00:26:05.506Z,-1.53
2023-02-01T00:28:34.005Z,-1.51
2023-02-01T00:31:03.971Z,-1.48
2023-02-01T00:33:32.748Z,-1.44
2023-02-01T00:36:02.398Z,-1.41
2023-02-01T00:38:30.818Z,-1.38
2023-02-01T00:41:11.040Z,-1.35
2023-02-01T00:43:39.852Z,-1.33
2023-02-01T00:46:08.216Z,-1.28
2023-02-01T00:48:36.469Z,-1.23
2023-02-01T00:51:06.137Z,-1.20
2023-02-01T00:53:34.660Z,-1.19
2023-02-01T00:56:02.848Z,-1.18
2023-02-01T00:58:31.037Z,-1.17
2023-02-01T01:01:04.230Z,-1.13
2023-02-01T01:03:34.499Z,-1.11
2023-02-01T01:06:04.222Z,-1.09
2023-02-01T01:08:32.307Z,-1.07
2023-02-01T01:11:05.377Z,-1.05
2023-02-01T01:13:33.670Z,-1.04
2023-02-01T01:16:03.774Z,-1.01
2023-02-01T01:18:32.577Z,-0.95
2023-02-01T01:21:00.987Z,-0.91
2023-02-01T01:23:29.314Z,-0.85
2023-02-01T01:25:57.375Z,-0.79
2023-02-01T01:28:25.586Z,-0.71
2023-02-01T01:30:53.809Z,-0.63
2023-02-01T01:33:21.961Z,-0.54
2023-02-01T01:35:50.063Z,-0.44
2023-02-01T01:38:18.454Z,-0.33
2023-02-01T01:40:47.057Z,-0.24
2023-02-01T01:43:16.155Z,-0.18
2023-02-01T01:45:44.380Z,-0.15
2023-02-01T01:48:25.561Z,-0.10
2023-02-01T01:51:01.436Z,-0.08
2023-02-01T01:53:33.133Z,-0.06
2023-02-01T01:56:01.919Z,-0.04
2023-02-01T01:58:33.175Z,-0.04
2023-02-01T02:01:01.277Z,-0.03
2023-02-01T02:03:29.259Z,-0.04
2023-02-01T02:06:00.012Z,-0.05
2023-02-01T02:08:28.763Z,-0.09
2023-02-01T02:11:02.736Z,-0.12
2023-02-01T02:13:36.467Z,-0.10
2023-02-01T02:16:04.664Z,-0.05
2023-02-01T02:18:40.208Z,0.01
2023-02-01T02:21:08.236Z,0.08
2023-02-01T02:23:51.496Z,0.13
2023-02-01T02:26:32.016Z,0.16
2023-02-01T02:29:19.186Z,0.16
2023-02-01T02:32:04.517Z,0.16
2023-02-01T02:34:35.429Z,0.15
2023-02-01T02:37:23.823Z,0.15
2023-02-01T02:40:03.483Z,0.12
2023-02-01T02:43:06.777Z,0.06
2023-02-01T02:45:53.585Z,-0.01
2023-02-01T02:48:26.906Z,-0.05
2023-02-01T02:51:14.091Z,-0.09
2023-02-01T02:54:18.527Z,-0.12
2023-02-01T02:57:06.491Z,-0.18
2023-02-01T02:59:54.687Z,-0.23
2023-02-01T03:02:41.855Z,-0.26
2023-02-01T03:05:09.900Z,-0.27
2023-02-01T03:07:50.229Z,-0.27
2023-02-01T03:10:18.342Z,-0.27
2023-02-01T03:12:58.836Z,-0.26
2023-02-01T03:15:50.783Z,-0.25
2023-02-01T03:18:29.855Z,-0.23
2023-02-01T03:20:59.769Z,-0.23
2023-02-01T03:23:31.119Z,-0.21
2023-02-01T03:26:00.549Z,-0.20
2023-02-01T03:28:31.294Z,-0.16
2023-02-01T03:31:01.632Z,-0.10
2023-02-01T03:33:31.330Z,-0.03
2023-02-01T03:36:30.364Z,0.06
2023-02-01T03:39:04.519Z,0.18
2023-02-01T03:41:43.814Z,0.29
2023-02-01T03:44:24.162Z,0.39
2023-02-01T03:46:52.223Z,0.42
2023-02-01T03:49:24.697Z,0.47
2023-02-01T03:51:53.381Z,0.52
2023-02-01T03:54:22.032Z,0.55
2023-02-01T03:56:51.769Z,0.58
2023-02-01T03:59:19.815Z,0.59
2023-02-01T04:01:48.354Z,0.61
2023-02-01T04:04:21.086Z,0.62
2023-02-01T04:06:52.322Z,0.64
2023-02-01T04:09:21.103Z,0.66
2023-02-01T04:11:49.134Z,0.67
2023-02-01T04:14:17.250Z,0.66
2023-02-01T04:16:45.279Z,0.67
2023-02-01T04:19:13.436Z,0.67
2023-02-01T04:21:41.543Z,0.70
2023-02-01T04:24:09.942Z,0.76
2023-02-01T04:26:38.120Z,0.82
2023-02-01T04:29:06.200Z,0.87
2023-02-01T04:31:36.934Z,0.91
2023-02-01T04:34:04.972Z,0.96
2023-02-01T04:36:33.047Z,0.99
2023-02-01T04:39:01.056Z,0.97
2023-02-01T04:41:30.104Z,0.97
2023-02-01T04:43:58.272Z,0.96
2023-02-01T04:46:26.271Z,0.93
2023-02-01T04:48:54.333Z,0.91
2023-02-01T04:51:22.877Z,0.89
2023-02-01T04:53:50.799Z,0.89
2023-02-01T04:56:18.932Z,0.93
2023-02-01T04:58:46.996Z,0.98
2023-02-01T05:01:15.013Z,1.05
2023-02-01T05:03:42.981Z,1.10
2023-02-01T05:06:10.942Z,1.16
2023-02-01T05:08:39.033Z,1.22
2023-02-01T05:11:07.194Z,1.26
2023-02-01T05:13:50.323Z,1.30
2023-02-01T05:16:18.448Z,1.28
2023-02-01T05:18:46.666Z,1.30
2023-02-01T05:21:14.650Z,1.30
2023-02-01T05:24:01.536Z,1.28
2023-02-01T05:26:29.572Z,1.23
2023-02-01T05:28:58.741Z,1.22
2023-02-01T05:31:27.087Z,1.23
2023-02-01T05:33:55.195Z,1.24
2023-02-01T05:36:23.199Z,1.24
2023-02-01T05:38:51.210Z,1.22
2023-02-01T05:41:19.222Z,1.22
2023-02-01T05:43:47.222Z,1.21
2023-02-01T05:46:15.206Z,1.21
2023-02-01T05:48:44.000Z,1.21
2023-02-01T05:51:12.631Z,1.22
2023-02-01T05:53:41.979Z,1.22
2023-02-01T05:56:10.255Z,1.20
2023-02-01T05:58:38.283Z,1.18
2023-02-01T06:01:09.036Z,1.18
2023-02-01T06:03:38.306Z,1.21
2023-02-01T06:06:07.091Z,1.26
2023-02-01T06:08:35.106Z,1.31
2023-02-01T06:11:05.061Z,1.38
2023-02-01T06:13:34.697Z,1.45
2023-02-01T06:16:04.449Z,1.49
2023-02-01T06:18:32.629Z,1.48
2023-02-01T06:21:01.828Z,1.43
2023-02-01T06:23:31.385Z,1.41
2023-02-01T06:26:01.188Z,1.42
2023-02-01T06:28:29.925Z,1.46
2023-02-01T06:30:59.113Z,1.48
2023-02-01T06:33:28.060Z,1.51
2023-02-01T06:36:00.109Z,1.53
2023-02-01T06:38:28.732Z,1.56
2023-02-01T06:40:57.992Z,1.62
2023-02-01T06:43:27.335Z,1.66
2023-02-01T06:46:00.381Z,1.68
2023-02-01T06:48:28.551Z,1.66
2023-02-01T06:50:56.726Z,1.66
2023-02-01T06:53:24.823Z,1.72
2023-02-01T06:55:54.109Z,1.77
2023-02-01T06:58:22.570Z,1.81
2023-02-01T07:00:51.799Z,1.87
2023-02-01T07:03:19.809Z,1.89
2023-02-01T07:05:48.528Z,1.94
2023-02-01T07:08:16.802Z,1.96
2023-02-01T07:10:44.916Z,1.94
2023-02-01T07:13:13.041Z,1.94
2023-02-01T07:15:41.466Z,1.93
2023-02-01T07:18:09.559Z,1.89
2023-02-01T07:20:40.427Z,1.97
2023-02-01T07:23:11.165Z,2.04
2023-02-01T07:25:39.233Z,2.12
2023-02-01T07:28:07.312Z,2.16
2023-02-01T07:30:35.388Z,2.19
2023-02-01T07:33:03.511Z,2.23
2023-02-01T07:35:32.126Z,2.25
2023-02-01T07:38:00.366Z,2.25
2023-02-01T07:40:32.386Z,2.25
2023-02-01T07:43:02.184Z,2.27
2023-02-01T07:45:30.318Z,2.28
2023-02-01T07:47:58.879Z,2.29
2023-02-01T07:50:27.126Z,2.28
2023-02-01T07:52:55.260Z,2.30
2023-02-01T07:55:23.535Z,2.36
2023-02-01T07:57:52.011Z,2.43
2023-02-01T08:00:39.087Z,2.52
2023-02-01T08:03:10.798Z,2.60
2023-02-01T08:05:41.045Z,2.70
2023-02-01T08:08:09.156Z,2.77
2023-02-01T08:10:37.220Z,2.80
2023-02-01T08:13:05.315Z,2.79
2023-02-01T08:15:36.089Z,2.77
2023-02-01T08:18:04.451Z,2.74
2023-02-01T08:20:35.725Z,2.73
2023-02-01T08:23:03.993Z,2.67
2023-02-01T08:25:33.250Z,2.61
2023-02-01T08:28:02.042Z,2.56
2023-02-01T08:30:30.187Z,2.51
2023-02-01T08:32:59.425Z,2.51
2023-02-01T08:35:42.799Z,2.52
2023-02-01T08:38:13.053Z,2.60
2023-02-01T08:40:42.507Z,2.69
2023-02-01T08:43:10.635Z,2.76
2023-02-01T08:45:40.764Z,2.87
2023-02-01T08:48:09.116Z,2.95
2023-02-01T08:50:37.219Z,3.07
2023-02-01T08:53:19.342Z,3.14
2023-02-01T08:55:53.895Z,3.31
2023-02-01T08:58:22.886Z,3.41
2023-02-01T09:00:51.211Z,3.37
2023-02-01T09:03:19.403Z,3.37
2023-02-01T09:05:50.122Z,3.43
2023-02-01T09:08:20.020Z,3.47
2023-02-01T09:10:48.047Z,3.49
2023-02-01T09:13:16.221Z,3.54
2023-02-01T09:15:44.580Z,3.63
2023-02-01T09:18:13.277Z,3.72
2023-02-01T09:20:43.502Z,3.83
2023-02-01T09:23:11.685Z,3.98
2023-02-01T09:25:43.291Z,4.10
2023-02-01T09:28:11.740Z,4.18
2023-02-01T09:30:40.033Z,4.32
2023-02-01T09:33:12.180Z,4.38
2023-02-01T09:35:40.246Z,4.44
2023-02-01T09:38:10.898Z,4.63
2023-02-01T09:40:43.388Z,4.92
2023-02-01T09:43:11.665Z,5.25
2023-02-01T09:45:48.382Z,5.27
2023-02-01T09:48:18.913Z,5.32
2023-02-01T09:50:52.871Z,5.37
2023-02-01T09:53:20.828Z,5.36
2023-02-01T09:55:58.372Z,5.34
2023-02-01T09:58:26.321Z,5.33
2023-02-01T10:00:56.492Z,5.36
2023-02-01T10:03:30.192Z,5.32
2023-02-01T10:06:17.787Z,5.34
2023-02-01T10:08:54.909Z,5.37
2023-02-01T10:11:49.471Z,5.41
2023-02-01T10:14:27.261Z,5.38
2023-02-01T10:17:14.093Z,5.47
2023-02-01T10:20:08.185Z,5.44
2023-02-01T10:25:35.079Z,5.46
2023-02-01T10:28:05.280Z,5.50
2023-02-01T10:30:41.892Z,5.53
2023-02-01T10:33:17.021Z,5.50
2023-02-01T10:35:46.027Z,5.50
2023-02-01T10:38:27.009Z,5.42
2023-02-01T10:40:57.115Z,5.49
2023-02-01T10:43:28.844Z,5.50
2023-02-01T10:45:57.966Z,5.39
2023-02-01T10:48:26.171Z,5.34
2023-02-01T10:50:54.319Z,5.24
2023-02-01T10:53:28.593Z,5.20
2023-02-01T10:55:57.025Z,5.12
2023-02-01T10:58:28.605Z,5.14
2023-02-01T11:01:03.953Z,5.15
2023-02-01T11:03:42.142Z,5.13
2023-02-01T11:06:12.585Z,5.08
2023-02-01T11:08:48.539Z,5.00
2023-02-01T11:11:19.348Z,4.96
2023-02-01T11:13:55.986Z,4.91
2023-02-01T11:16:29.976Z,4.90
2023-02-01T11:18:59.406Z,4.83
2023-02-01T11:21:28.259Z,4.82
2023-02-01T11:23:56.887Z,4.80
2023-02-01T11:26:25.939Z,4.81
2023-02-01T11:29:04.084Z,4.75
2023-02-01T11:31:35.996Z,4.62
2023-02-01T11:34:10.276Z,4.54
2023-02-01T11:36:39.900Z,4.44
2023-02-01T11:39:19.107Z,4.33
2023-02-01T11:41:59.251Z,4.24
2023-02-01T11:44:38.248Z,4.21
2023-02-01T11:47:25.220Z,4.13
2023-02-01T11:49:54.572Z,4.01
2023-02-01T11:52:34.862Z,3.92
2023-02-01T11:55:05.732Z,3.88
2023-02-01T11:57:45.217Z,3.78
2023-02-01T12:00:25.695Z,3.75
2023-02-01T12:03:06.609Z,3.74
2023-02-01T12:05:38.051Z,3.84
2023-02-01T12:08:14.009Z,3.99
2023-02-01T12:10:48.162Z,4.09
2023-02-01T12:13:42.432Z,4.19
2023-02-01T12:16:18.799Z,4.24
2023-02-01T12:18:56.114Z,4.21
2023-02-01T12:21:42.748Z,4.26
2023-02-01T12:24:29.708Z,4.21
2023-02-01T12:26:57.673Z,4.27
2023-02-01T12:29:54.287Z,4.21
2023-02-01T12:32:28.271Z,4.14
2023-02-01T12:35:34.923Z,4.15
2023-02-01T12:38:09.390Z,4.09
2023-02-01T12:40:40.060Z,4.18
2023-02-01T12:43:16.464Z,4.32
2023-02-01T12:45:49.346Z,4.46
2023-02-01T12:48:20.514Z,4.59
2023-02-01T12:50:54.092Z,4.69
2023-02-01T12:53:34.474Z,4.73
2023-02-01T12:56:08.437Z,4.73
2023-02-01T12:58:36.513Z,4.77
2023-02-01T13:01:09.677Z,4.82
2023-02-01T13:03:44.090Z,4.82
2023-02-01T13:06:15.566Z,4.87
2023-02-01T13:08:47.651Z,4.97
2023-02-01T13:11:41.819Z,5.05
2023-02-01T13:14:28.825Z,5.08
2023-02-01T13:17:02.122Z,5.06
2023-02-01T13:19:53.115Z,5.03
2023-02-01T13:22:27.208Z,4.99
2023-02-01T13:24:57.872Z,4.94
2023-02-01T13:27:28.209Z,4.92
2023-02-01T13:30:27.124Z,4.90
2023-02-01T13:33:54.404Z,4.84
2023-02-01T13:35:59.896Z,4.74
2023-02-01T13:38:46.652Z,4.66
2023-02-01T13:41:17.840Z,4.59
2023-02-01T13:43:48.981Z,4.54
2023-02-01T13:46:19.148Z,4.43
2023-02-01T13:48:49.471Z,4.36
2023-02-01T13:51:20.343Z,4.26
2023-02-01T13:53:49.703Z,4.19
2023-02-01T13:56:21.114Z,4.14
2023-02-01T13:58:49.385Z,4.08
2023-02-01T14:01:20.679Z,4.01
2023-02-01T14:03:53.066Z,3.96
2023-02-01T14:06:27.416Z,3.91
2023-02-01T14:09:04.764Z,3.85
2023-02-01T14:11:36.660Z,3.78
2023-02-01T14:14:27.750Z,3.73
2023-02-01T14:16:56.121Z,3.68
2023-02-01T14:19:24.332Z,3.66
2023-02-01T14:21:57.975Z,3.64
2023-02-01T14:24:27.289Z,3.61
2023-02-01T14:26:56.974Z,3.60
2023-02-01T14:29:36.590Z,3.56
2023-02-01T14:32:07.093Z,3.49
2023-02-01T14:34:47.757Z,3.43
2023-02-01T14:37:20.843Z,3.37
2023-02-01T14:39:59.406Z,3.34
2023-02-01T14:42:44.306Z,3.28
2023-02-01T14:45:19.588Z,3.20
2023-02-01T14:47:49.020Z,3.19
2023-02-01T14:50:38.939Z,3.23
2023-02-01T14:53:07.046Z,3.23
2023-02-01T14:55:53.899Z,3.20
2023-02-01T14:58:40.888Z,3.18
2023-02-01T15:01:18.159Z,3.15
2023-02-01T15:03:53.770Z,3.10
2023-02-01T15:06:26.605Z,3.05
2023-02-01T15:08:57.636Z,2.99
2023-02-01T15:11:25.995Z,2.98
2023-02-01T15:13:55.698Z,2.91
2023-02-01T15:16:27.246Z,2.85
2023-02-01T15:19:09.731Z,2.82
2023-02-01T15:21:47.018Z,2.76
2023-02-01T15:24:19.598Z,2.70
2023-02-01T15:26:47.816Z,2.68
2023-02-01T15:29:16.297Z,2.63
2023-02-01T15:31:48.908Z,2.58
2023-02-01T15:34:17.723Z,2.54
2023-02-01T15:37:01.640Z,2.46
2023-02-01T15:39:33.213Z,2.38
2023-02-01T15:42:10.509Z,2.34
2023-02-01T15:44:43.163Z,2.26
2023-02-01T15:47:19.451Z,2.19
2023-02-01T15:49:52.073Z,2.14
2023-02-01T15:52:40.419Z,2.10
2023-02-01T15:55:31.699Z,2.06
2023-02-01T15:58:00.103Z,2.02
2023-02-01T16:00:30.568Z,1.99
2023-02-01T16:02:59.943Z,1.97
2023-02-01T16:05:39.564Z,1.91
2023-02-01T16:08:11.912Z,1.90
2023-02-01T16:10:42.110Z,1.91
2023-02-01T16:13:10.274Z,1.94
2023-02-01T16:15:38.663Z,1.97
2023-02-01T16:18:08.901Z,2.01
2023-02-01T16:20:37.736Z,2.08
2023-02-01T16:23:06.218Z,2.14
2023-02-01T16:25:34.244Z,2.21
2023-02-01T16:28:02.412Z,2.25
2023-02-01T16:30:30.486Z,2.28
2023-02-01T16:33:00.188Z,2.29
2023-02-01T16:35:31.021Z,2.28
2023-02-01T16:37:59.831Z,2.26
2023-02-01T16:40:27.859Z,2.24
2023-02-01T16:42:59.669Z,2.22
2023-02-01T16:45:27.755Z,2.21
2023-02-01T16:47:58.008Z,2.20
2023-02-01T16:50:26.873Z,2.19
2023-02-01T16:52:54.949Z,2.19
2023-02-01T16:55:23.511Z,2.17
2023-02-01T16:57:52.000Z,2.15
2023-02-01T17:00:25.768Z,2.12
2023-02-01T17:02:54.422Z,2.12
2023-02-01T17:05:23.460Z,2.10
2023-02-01T17:07:52.539Z,2.08
2023-02-01T17:10:34.524Z,2.06
2023-02-01T17:13:03.238Z,2.02
2023-02-01T17:15:35.174Z,1.97
2023-02-01T17:18:04.301Z,1.92
2023-02-01T17:20:37.268Z,1.89
2023-02-01T17:23:06.260Z,1.87
2023-02-01T17:25:34.255Z,1.85
2023-02-01T17:28:02.353Z,1.84
2023-02-01T17:30:32.064Z,1.86
2023-02-01T17:33:05.416Z,1.91
2023-02-01T17:35:38.568Z,1.91
2023-02-01T17:38:11.304Z,1.91
2023-02-01T17:40:39.319Z,1.88
2023-02-01T17:43:10.792Z,1.87
2023-02-01T17:45:42.073Z,1.86
2023-02-01T17:48:10.049Z,1.85
2023-02-01T17:50:38.439Z,1.82
2023-02-01T17:53:10.006Z,1.75
2023-02-01T17:55:40.714Z,1.70
2023-02-01T17:58:10.367Z,1.65
2023-02-01T18:00:39.226Z,1.64
2023-02-01T18:03:07.907Z,1.66
2023-02-01T18:05:40.828Z,1.70
2023-02-01T18:08:09.095Z,1.74
2023-02-01T18:10:37.129Z,1.79
2023-02-01T18:13:05.393Z,1.80
2023-02-01T18:15:33.443Z,1.75
2023-02-01T18:18:01.410Z,1.67
2023-02-01T18:20:29.605Z,1.64
2023-02-01T18:22:57.572Z,1.57
2023-02-01T18:25:27.519Z,1.52
2023-02-01T18:27:57.471Z,1.51
2023-02-01T18:30:29.310Z,1.50
2023-02-01T18:32:57.408Z,1.48
2023-02-01T18:35:27.175Z,1.44
2023-02-01T18:37:56.665Z,1.41
2023-02-01T18:40:28.903Z,1.41
2023-02-01T18:42:58.288Z,1.41
2023-02-01T18:45:32.151Z,1.42
2023-02-01T18:48:00.633Z,1.39
2023-02-01T18:50:32.664Z,1.40
2023-02-01T18:53:01.862Z,1.37
2023-02-01T18:55:32.630Z,1.37
2023-02-01T18:58:01.420Z,1.41
2023-02-01T19:00:29.992Z,1.42
2023-02-01T19:02:57.983Z,1.49
2023-02-01T19:05:26.817Z,1.54
2023-02-01T19:07:55.190Z,1.56
2023-02-01T19:10:23.766Z,1.56
2023-02-01T19:12:52.754Z,1.58
2023-02-01T19:15:20.801Z,1.58
2023-02-01T19:17:50.338Z,1.58
2023-02-01T19:20:19.750Z,1.55
2023-02-01T19:22:48.047Z,1.54
2023-02-01T19:25:17.567Z,1.55
2023-02-01T19:27:45.652Z,1.59
2023-02-01T19:30:14.277Z,1.60
2023-02-01T19:32:42.480Z,1.64
2023-02-01T19:35:13.360Z,1.66
2023-02-01T19:37:42.163Z,1.69
2023-02-01T19:40:11.610Z,1.67
2023-02-01T19:42:39.995Z,1.65
2023-02-01T19:45:11.302Z,1.63
2023-02-01T19:47:39.450Z,1.61
2023-02-01T19:50:08.423Z,1.58
2023-02-01T19:52:36.777Z,1.57
2023-02-01T19:55:05.086Z,1.55
2023-02-01T19:57:33.421Z,1.60
2023-02-01T20:00:01.554Z,1.64
2023-02-01T20:02:32.152Z,1.67
2023-02-01T20:05:00.197Z,1.71
2023-02-01T20:07:28.273Z,1.74
2023-02-01T20:09:56.513Z,1.76
2023-02-01T20:12:24.667Z,1.76
2023-02-01T20:14:52.886Z,1.75
2023-02-01T20:17:20.844Z,1.73
2023-02-01T20:19:48.826Z,1.70
2023-02-01T20:22:17.178Z,1.67
2023-02-01T20:24:45.236Z,1.63
2023-02-01T20:27:14.123Z,1.59
2023-02-01T20:29:42.108Z,1.56
2023-02-01T20:32:10.563Z,1.52
2023-02-01T20:34:38.498Z,1.51
2023-02-01T20:37:06.987Z,1.53
2023-02-01T20:39:35.371Z,1.58
2023-02-01T20:42:03.375Z,1.64
2023-02-01T20:44:31.464Z,1.70
2023-02-01T20:46:59.628Z,1.76
2023-02-01T20:49:27.685Z,1.79
2023-02-01T20:51:57.943Z,1.80
2023-02-01T20:54:26.198Z,1.82
2023-02-01T20:56:54.316Z,1.84
2023-02-01T20:59:22.313Z,1.83
2023-02-01T21:01:53.451Z,1.80
2023-02-01T21:04:27.581Z,1.81
2023-02-01T21:06:56.710Z,1.83
2023-02-01T21:09:25.290Z,1.86
2023-02-01T21:11:53.935Z,1.88
2023-02-01T21:14:22.442Z,1.89
2023-02-01T21:16:50.614Z,1.91
2023-02-01T21:19:19.058Z,1.86
2023-02-01T21:21:47.638Z,1.82
2023-02-01T21:24:15.609Z,1.77
2023-02-01T21:26:43.674Z,1.74
2023-02-01T21:29:13.523Z,1.73
2023-02-01T21:31:42.310Z,1.72
2023-02-01T21:34:10.667Z,1.71
2023-02-01T21:36:38.684Z,1.66
2023-02-01T21:39:08.436Z,1.63
2023-02-01T21:41:55.593Z,1.66
2023-02-01T21:44:23.795Z,1.68
2023-02-01T21:46:51.850Z,1.73
2023-02-01T21:49:19.869Z,1.76
2023-02-01T21:51:48.200Z,1.78
2023-02-01T21:54:17.560Z,1.80
2023-02-01T21:56:45.808Z,1.83
2023-02-01T21:59:13.873Z,1.82
2023-02-01T22:01:42.080Z,1.83
2023-02-01T22:04:10.609Z,1.81
2023-02-01T22:06:42.858Z,1.79
2023-02-01T22:09:21.513Z,1.74
2023-02-01T22:11:50.180Z,1.71
2023-02-01T22:14:18.462Z,1.69
2023-02-01T22:16:46.579Z,1.67
2023-02-01T22:19:14.875Z,1.69
2023-02-01T22:21:45.262Z,1.70
2023-02-01T22:24:15.563Z,1.78
2023-02-01T22:26:44.255Z,1.84
2023-02-01T22:29:14.918Z,1.88
2023-02-01T22:31:43.543Z,1.90
2023-02-01T22:34:12.234Z,1.89
2023-02-01T22:36:40.377Z,1.87
2023-02-01T22:39:08.651Z,1.85
2023-02-01T22:41:36.699Z,1.81
2023-02-01T22:44:04.823Z,1.74
2023-02-01T22:46:33.477Z,1.73
2023-02-01T22:49:01.631Z,1.73
2023-02-01T22:51:30.623Z,1.74
2023-02-01T22:53:59.511Z,1.77
2023-02-01T22:56:31.761Z,1.78
2023-02-01T22:59:01.092Z,1.77
2023-02-01T23:01:29.562Z,1.77
2023-02-01T23:03:58.567Z,1.76
2023-02-01T23:06:26.960Z,1.76
2023-02-01T23:08:59.167Z,1.76
2023-02-01T23:11:27.849Z,1.76
2023-02-01T23:13:56.209Z,1.77
2023-02-01T23:16:24.239Z,1.77
2023-02-01T23:18:52.287Z,1.81
2023-02-01T23:21:21.294Z,1.82
2023-02-01T23:23:53.618Z,1.85
2023-02-01T23:26:22.357Z,1.86
2023-02-01T23:28:52.519Z,1.86
2023-02-01T23:31:21.597Z,1.85
2023-02-01T23:33:49.796Z,1.84
2023-02-01T23:36:17.772Z,1.82
2023-02-01T23:38:46.356Z,1.79
2023-02-01T23:41:15.613Z,1.72
2023-02-01T23:43:59.250Z,1.68
2023-02-01T23:46:32.283Z,1.63
2023-02-01T23:49:01.240Z,1.59
2023-02-01T23:51:29.400Z,1.58
2023-02-01T23:53:57.900Z,1.60
2023-02-01T23:56:27.349Z,1.59
2023-02-01T23:58:57.024Z,1.54
